Time;durP1;ratioP1;P1;durP2;ratioP2;P2;SDS_P1;SDS_P2;PMS_P1;PMS_P2;Temp;Humidity;BMP_temperature;BMP_pressure;BME280_temperature;BME280_humidity;BME280_pressure;Samples;Min_cycle;Max_cycle;Signal;HPM_P1;HPM_P2
2022/09/05 00:02:01;;;;;;;4.55;2.72;;;19.40;69.60;;;;;;5031383;28;20029;-68
2022/09/05 00:04:36;;;;;;;3.13;2.83;;;19.30;69.50;;;;;;5031376;28;20063;-68
2022/09/05 00:07:22;;;;;;;3.78;2.70;;;19.30;69.70;;;;;;5015767;28;20456;-68
2022/09/05 00:10:08;;;;;;;3.38;2.58;;;19.30;69.80;;;;;;5011393;28;20037;-68
2022/09/05 00:12:36;;;;;;;4.00;3.25;;;19.30;69.90;;;;;;5011586;28;20116;-68
2022/09/05 00:15:13;;;;;;;5.90;3.13;;;19.30;69.90;;;;;;5011540;28;20088;-68
2022/09/05 00:17:45;;;;;;;4.57;2.90;;;19.30;69.90;;;;;;5019374;28;20036;-68
2022/09/05 00:20:16;;;;;;;4.35;2.72;;;19.30;70.20;;;;;;5031060;28;20520;-68
2022/09/05 00:23:00;;;;;;;3.58;3.08;;;19.20;70.30;;;;;;5030893;28;20080;-67
2022/09/05 00:25:47;;;;;;;2.85;2.38;;;19.20;70.30;;;;;;5030991;28;20042;-67
2022/09/05 00:28:29;;;;;;;4.00;2.53;;;19.20;70.10;;;;;;5030958;28;20023;-67
2022/09/05 00:31:10;;;;;;;3.53;2.40;;;19.20;70.20;;;;;;5037526;28;20053;-68
2022/09/05 00:33:45;;;;;;;5.80;2.85;;;19.20;70.30;;;;;;5118413;27;20027;-67
2022/09/05 00:36:17;;;;;;;3.22;2.92;;;19.20;70.30;;;;;;5122273;27;20047;-68
2022/09/05 00:38:52;;;;;;;3.60;2.85;;;19.10;70.20;;;;;;5113468;28;20019;-68
2022/09/05 00:41:18;;;;;;;5.45;2.88;;;19.10;70.50;;;;;;5113299;28;20110;-67
2022/09/05 00:43:48;;;;;;;3.58;2.72;;;19.10;70.40;;;;;;5113642;28;20098;-68
2022/09/05 00:46:31;;;;;;;10.63;3.22;;;19.10;70.40;;;;;;5095380;28;20008;-68
2022/09/05 00:49:32;;;;;;;3.10;2.78;;;19.10;70.40;;;;;;5113274;28;20024;-68
2022/09/05 00:52:03;;;;;;;3.78;2.83;;;19.10;70.50;;;;;;5095008;28;20027;-68
2022/09/05 00:54:45;;;;;;;5.75;2.35;;;19.10;70.40;;;;;;5113203;28;20108;-68
2022/09/05 00:57:49;;;;;;;4.47;3.17;;;19.10;70.60;;;;;;5113128;28;20083;-68
2022/09/05 01:00:22;;;;;;;3.83;2.97;;;19.10;70.70;;;;;;5095052;28;20493;-67
2022/09/05 01:03:18;;;;;;;6.43;2.95;;;19.10;70.60;;;;;;5113180;28;20096;-68
2022/09/05 01:06:12;;;;;;;23.17;3.13;;;19.00;70.70;;;;;;5113100;28;20047;-68
2022/09/05 01:08:52;;;;;;;5.82;3.00;;;19.00;70.60;;;;;;5113267;28;20023;-67
2022/09/05 01:11:47;;;;;;;5.00;2.80;;;19.00;70.60;;;;;;5113179;28;20105;-68
2022/09/05 01:14:35;;;;;;;7.18;3.47;;;19.00;70.70;;;;;;5113213;28;20497;-68
2022/09/05 01:17:27;;;;;;;7.80;3.08;;;18.90;70.80;;;;;;5113023;28;20106;-68
2022/09/05 01:19:55;;;;;;;6.50;2.95;;;18.90;70.80;;;;;;5109058;28;20085;-67
2022/09/05 01:22:43;;;;;;;4.30;2.88;;;18.90;70.70;;;;;;5112861;28;20034;-68
2022/09/05 01:25:17;;;;;;;6.25;2.90;;;18.90;70.90;;;;;;5113554;28;20392;-68
2022/09/05 01:28:22;;;;;;;4.15;2.83;;;18.90;70.80;;;;;;5112985;28;20020;-68
2022/09/05 01:30:51;;;;;;;7.72;3.55;;;18.80;70.90;;;;;;5094813;28;20478;-67
2022/09/05 01:33:26;;;;;;;5.22;3.47;;;18.90;70.90;;;;;;5112612;28;20054;-68
2022/09/05 01:36:04;;;;;;;7.68;2.92;;;18.80;71.00;;;;;;5112979;28;20103;-68
2022/09/05 01:39:23;;;;;;;3.78;3.08;;;18.80;71.00;;;;;;5112912;28;20058;-67
2022/09/05 01:41:59;;;;;;;4.30;3.50;;;18.80;71.10;;;;;;5030113;28;20112;-68
2022/09/05 01:44:46;;;;;;;9.60;3.10;;;18.70;71.10;;;;;;5030237;28;20033;-68
2022/09/05 01:48:03;;;;;;;6.75;3.67;;;18.80;71.30;;;;;;5086244;28;20392;-68
2022/09/05 01:50:31;;;;;;;5.15;2.80;;;18.70;71.30;;;;;;5030521;28;20500;-68
2022/09/05 01:53:35;;;;;;;4.28;3.42;;;18.70;71.20;;;;;;5030123;28;20029;-68
2022/09/05 01:56:21;;;;;;;4.85;3.20;;;18.70;71.30;;;;;;5080541;28;20036;-68
2022/09/05 01:59:24;;;;;;;8.40;3.53;;;18.60;71.20;;;;;;5112748;28;20027;-68
2022/09/05 02:02:20;;;;;;;4.65;2.95;;;18.60;71.30;;;;;;5112634;28;20114;-68
2022/09/05 02:05:24;;;;;;;5.97;3.13;;;18.60;71.30;;;;;;5094322;28;20027;-68
2022/09/05 02:08:11;;;;;;;4.40;3.33;;;18.60;71.40;;;;;;5113354;28;20028;-68
2022/09/05 02:11:01;;;;;;;3.75;3.08;;;18.60;71.40;;;;;;5116514;28;20085;-67
2022/09/05 02:13:32;;;;;;;5.93;3.08;;;18.50;71.40;;;;;;5098220;28;20034;-68
2022/09/05 02:16:04;;;;;;;3.55;3.00;;;18.60;71.40;;;;;;5116309;28;20470;-67
2022/09/05 02:18:53;;;;;;;2.85;2.58;;;18.50;71.30;;;;;;5116428;28;20019;-67
2022/09/05 02:21:25;;;;;;;5.35;3.60;;;18.50;71.70;;;;;;5116165;28;20036;-68
2022/09/05 02:24:08;;;;;;;7.00;3.42;;;18.50;71.60;;;;;;5116245;28;20046;-68
2022/09/05 02:26:38;;;;;;;3.47;3.05;;;18.50;71.70;;;;;;5116242;28;20004;-68
2022/09/05 02:29:33;;;;;;;4.35;3.35;;;18.50;71.70;;;;;;5097853;28;20019;-68
2022/09/05 02:32:21;;;;;;;5.28;3.40;;;18.50;71.80;;;;;;5114726;28;20051;-69
2022/09/05 02:35:21;;;;;;;3.92;2.92;;;18.50;71.80;;;;;;5115941;27;20062;-67
2022/09/05 02:37:56;;;;;;;4.85;3.22;;;18.50;71.90;;;;;;5045731;28;20046;-68
2022/09/05 02:40:35;;;;;;;4.22;3.42;;;18.40;71.80;;;;;;5115938;28;20090;-67
2022/09/05 02:43:01;;;;;;;4.75;3.58;;;18.40;71.80;;;;;;5115795;28;20024;-68
2022/09/05 02:45:51;;;;;;;5.75;3.60;;;18.40;71.80;;;;;;5097548;28;20046;-68
2022/09/05 02:48:54;;;;;;;5.28;3.53;;;18.40;71.80;;;;;;5116051;28;20382;-67
2022/09/05 02:51:44;;;;;;;6.93;3.63;;;18.40;72.00;;;;;;5097351;28;20034;-68
2022/09/05 02:54:19;;;;;;;3.75;3.13;;;18.40;72.00;;;;;;5097394;28;20114;-68
2022/09/05 02:56:50;;;;;;;3.92;3.50;;;18.40;71.90;;;;;;5097402;28;20080;-67
2022/09/05 03:00:01;;;;;;;3.38;3.08;;;18.30;71.80;;;;;;5115528;28;20023;-67
2022/09/05 03:02:34;;;;;;;4.70;3.25;;;18.30;71.90;;;;;;5097383;28;20043;-68
2022/09/05 03:05:18;;;;;;;5.45;3.58;;;18.30;71.80;;;;;;5115337;27;20049;-68
2022/09/05 03:08:02;;;;;;;5.60;4.00;;;18.30;71.80;;;;;;5115404;28;20020;-68
2022/09/05 03:10:44;;;;;;;5.10;3.42;;;18.30;72.10;;;;;;5115325;28;20107;-68
2022/09/05 03:13:28;;;;;;;5.60;3.45;;;18.30;72.20;;;;;;5115229;28;20027;-67
2022/09/05 03:16:03;;;;;;;4.27;3.63;;;18.30;72.20;;;;;;5115243;28;20487;-67
2022/09/05 03:18:44;;;;;;;5.35;3.28;;;18.30;72.10;;;;;;5096836;28;20020;-67
2022/09/05 03:21:55;;;;;;;3.95;3.20;;;18.30;72.20;;;;;;5096909;28;20379;-68
2022/09/05 03:24:47;;;;;;;6.68;3.47;;;18.20;72.30;;;;;;5115066;28;20022;-68
2022/09/05 03:27:24;;;;;;;5.40;3.60;;;18.20;72.30;;;;;;5115045;28;20015;-68
2022/09/05 03:30:07;;;;;;;4.32;3.53;;;18.20;72.30;;;;;;5114896;28;20024;-68
2022/09/05 03:32:39;;;;;;;3.83;3.45;;;18.20;72.40;;;;;;5092906;28;20359;-67
2022/09/05 03:35:44;;;;;;;5.05;4.00;;;18.20;72.30;;;;;;5094316;28;20032;-68
2022/09/05 03:38:47;;;;;;;4.60;3.47;;;18.20;72.50;;;;;;5094311;28;20020;-67
2022/09/05 03:41:44;;;;;;;5.22;3.33;;;18.20;72.50;;;;;;5094189;28;20028;-68
2022/09/05 03:44:14;;;;;;;3.92;3.38;;;18.20;72.50;;;;;;5094295;28;20016;-67
2022/09/05 03:47:02;;;;;;;4.93;3.50;;;18.20;72.40;;;;;;5094242;28;20020;-68
2022/09/05 03:49:55;;;;;;;4.80;3.83;;;18.10;72.50;;;;;;5092855;28;20085;-68
2022/09/05 03:52:39;;;;;;;5.38;3.88;;;18.20;72.60;;;;;;5093961;28;20024;-67
2022/09/05 03:55:17;;;;;;;4.07;3.50;;;18.10;72.60;;;;;;5094014;28;20023;-67
2022/09/05 03:57:58;;;;;;;3.83;3.42;;;18.10;72.60;;;;;;5093955;28;20030;-67
2022/09/05 04:00:29;;;;;;;7.50;3.72;;;18.20;73.50;;;;;;5093888;28;20058;-68
2022/09/05 04:03:03;;;;;;;6.07;3.25;;;18.10;72.50;;;;;;5093651;28;20024;-67
2022/09/05 04:05:35;;;;;;;4.28;3.65;;;18.10;72.60;;;;;;5094155;28;20024;-68
2022/09/05 04:08:45;;;;;;;3.80;3.30;;;18.10;72.70;;;;;;5094101;28;20078;-67
2022/09/05 04:11:29;;;;;;;4.43;3.28;;;18.10;72.70;;;;;;5011645;28;20433;-67
2022/09/05 04:14:21;;;;;;;5.07;3.95;;;18.10;72.70;;;;;;5030822;28;20048;-67
2022/09/05 04:16:56;;;;;;;4.15;3.30;;;18.10;72.80;;;;;;5025563;28;20120;-68
2022/09/05 04:19:30;;;;;;;4.25;3.65;;;18.10;72.70;;;;;;5011500;28;20152;-67
2022/09/05 04:22:27;;;;;;;4.20;3.80;;;18.10;72.80;;;;;;5011304;28;20038;-68
2022/09/05 04:25:23;;;;;;;5.05;3.88;;;18.10;73.00;;;;;;5009698;28;20030;-68
2022/09/05 04:28:14;;;;;;;5.07;3.65;;;18.10;72.90;;;;;;5011369;28;20038;-68
2022/09/05 04:30:47;;;;;;;5.00;3.40;;;18.10;72.80;;;;;;5010222;28;20497;-68
2022/09/05 04:33:42;;;;;;;6.97;3.75;;;18.10;72.90;;;;;;5011109;28;20046;-68
2022/09/05 04:36:08;;;;;;;4.97;4.03;;;18.10;73.00;;;;;;5011050;28;20057;-67
2022/09/05 04:38:57;;;;;;;7.53;4.13;;;18.10;73.00;;;;;;5011154;28;20481;-68
2022/09/05 04:41:26;;;;;;;8.05;4.10;;;18.10;73.10;;;;;;5009962;28;20080;-68
2022/09/05 04:44:01;;;;;;;5.05;3.42;;;18.10;73.10;;;;;;5010932;28;20026;-67
2022/09/05 04:46:39;;;;;;;11.07;4.13;;;18.10;73.10;;;;;;5041157;28;20156;-68
2022/09/05 04:49:11;;;;;;;6.00;3.85;;;18.10;73.20;;;;;;5092932;28;20073;-68
2022/09/05 04:51:43;;;;;;;8.18;4.07;;;18.10;73.10;;;;;;5093103;28;20062;-68
2022/09/05 04:54:20;;;;;;;7.57;3.95;;;18.20;73.30;;;;;;5093037;28;20045;-68
2022/09/05 04:56:51;;;;;;;4.60;3.50;;;18.10;73.30;;;;;;5093032;28;20096;-69
2022/09/05 04:59:30;;;;;;;4.63;3.72;;;18.20;73.40;;;;;;5092993;28;20050;-69
2022/09/05 05:02:02;;;;;;;6.00;3.25;;;18.20;73.50;;;;;;5092914;28;20043;-68
2022/09/05 05:04:28;;;;;;;7.97;3.30;;;18.20;73.50;;;;;;5092866;28;20419;-69
2022/09/05 05:07:11;;;;;;;10.73;4.28;;;18.30;73.50;;;;;;5092801;28;20062;-69
2022/09/05 05:09:48;;;;;;;4.45;3.78;;;18.20;73.40;;;;;;5092855;28;20069;-69
2022/09/05 05:12:20;;;;;;;12.23;4.22;;;18.30;73.50;;;;;;5091402;28;20605;-69
2022/09/05 05:14:52;;;;;;;6.13;4.30;;;18.30;73.60;;;;;;5092734;28;20039;-69
2022/09/05 05:17:34;;;;;;;9.00;4.38;;;18.30;73.70;;;;;;5092684;28;20095;-69
2022/09/05 05:20:21;;;;;;;9.38;4.45;;;18.40;73.90;;;;;;5092611;28;20033;-68
2022/09/05 05:23:14;;;;;;;9.18;4.75;;;18.40;73.90;;;;;;5092452;28;20032;-69
2022/09/05 05:25:52;;;;;;;7.90;4.63;;;18.50;74.00;;;;;;5092492;28;20069;-68
2022/09/05 05:28:30;;;;;;;6.20;4.57;;;18.50;74.00;;;;;;5092619;28;20031;-69
2022/09/05 05:31:09;;;;;;;8.70;4.85;;;18.60;74.00;;;;;;5092835;28;20016;-69
2022/09/05 05:33:38;;;;;;;7.75;5.28;;;18.60;74.00;;;;;;5112757;28;20075;-68
2022/09/05 05:36:08;;;;;;;6.95;4.88;;;18.70;74.00;;;;;;5112848;28;20030;-68
2022/09/05 05:39:07;;;;;;;9.82;5.63;;;18.70;73.90;;;;;;5112751;28;20027;-69
2022/09/05 05:41:43;;;;;;;5.85;5.10;;;18.80;73.90;;;;;;5112779;28;20034;-69
2022/09/05 05:44:29;;;;;;;7.28;5.38;;;18.80;73.80;;;;;;5115713;28;20019;-69
2022/09/05 05:47:21;;;;;;;7.45;5.38;;;18.90;73.90;;;;;;5126483;27;20032;-69
2022/09/05 05:49:50;;;;;;;10.35;5.32;;;18.90;73.60;;;;;;5127887;27;20027;-68
2022/09/05 05:52:38;;;;;;;6.60;4.90;;;19.00;73.60;;;;;;5101608;28;20530;-69
2022/09/05 05:55:43;;;;;;;7.90;6.07;;;19.00;73.40;;;;;;5097306;28;20106;-69
2022/09/05 05:58:33;;;;;;;5.68;4.63;;;19.10;73.40;;;;;;5098408;28;20153;-69
2022/09/05 06:01:23;;;;;;;7.63;5.53;;;19.10;73.20;;;;;;5099910;28;20027;-69
2022/09/05 06:04:05;;;;;;;7.65;5.22;;;19.20;73.10;;;;;;5115428;27;20076;-69
2022/09/05 06:07:01;;;;;;;6.55;5.00;;;19.20;73.00;;;;;;5133900;27;20014;-69
2022/09/05 06:09:49;;;;;;;7.28;5.70;;;19.30;72.80;;;;;;5116302;28;20027;-69
2022/09/05 06:12:40;;;;;;;12.20;6.35;;;19.40;72.80;;;;;;5098026;28;20107;-69
2022/09/05 06:15:11;;;;;;;7.43;6.45;;;19.40;72.60;;;;;;5130613;27;20027;-69
2022/09/05 06:17:56;;;;;;;11.35;7.05;;;19.50;72.50;;;;;;5136751;27;20023;-69
2022/09/05 06:20:35;;;;;;;11.50;7.00;;;19.60;72.30;;;;;;5119217;27;20035;-68
2022/09/05 06:23:23;;;;;;;9.77;6.70;;;19.60;72.20;;;;;;5131365;27;20029;-69
2022/09/05 06:26:23;;;;;;;9.88;7.30;;;19.60;72.20;;;;;;5085978;27;20486;-69
2022/09/05 06:28:57;;;;;;;10.60;7.00;;;19.70;71.90;;;;;;5116035;28;20474;-69
2022/09/05 06:31:55;;;;;;;14.68;8.38;;;19.70;71.70;;;;;;5119603;27;20036;-69
2022/09/05 06:35:02;;;;;;;13.00;7.25;;;19.80;71.70;;;;;;5045997;27;20049;-69
2022/09/05 06:37:45;;;;;;;23.77;10.65;;;19.80;71.60;;;;;;5134856;27;20088;-69
2022/09/05 06:40:15;;;;;;;21.50;11.70;;;19.90;71.20;;;;;;5136416;27;20107;-69
2022/09/05 06:43:06;;;;;;;20.90;13.15;;;20.00;71.20;;;;;;5136413;27;20034;-69
2022/09/05 06:46:01;;;;;;;25.95;15.27;;;20.10;71.10;;;;;;5136475;27;20382;-69
2022/09/05 06:48:51;;;;;;;24.73;15.88;;;20.20;70.90;;;;;;5136999;27;20054;-69
2022/09/05 06:51:40;;;;;;;31.77;16.45;;;20.20;70.60;;;;;;5136202;27;20016;-69
2022/09/05 06:54:30;;;;;;;28.15;16.23;;;20.30;70.50;;;;;;5117365;27;20058;-69
2022/09/05 06:57:21;;;;;;;23.17;15.40;;;20.40;70.50;;;;;;5136122;27;20110;-69
2022/09/05 07:00:07;;;;;;;31.73;18.40;;;20.40;70.30;;;;;;5136024;27;20052;-69
2022/09/05 07:02:35;;;;;;;29.63;18.70;;;20.50;69.80;;;;;;5116939;27;20027;-69
2022/09/05 07:05:23;;;;;;;30.77;18.65;;;20.60;69.50;;;;;;5115403;28;20027;-69
2022/09/05 07:07:55;;;;;;;27.73;18.23;;;20.60;69.20;;;;;;5115335;28;20020;-69
2022/09/05 07:10:34;;;;;;;31.55;18.73;;;20.70;69.30;;;;;;5115386;28;20027;-69
2022/09/05 07:13:14;;;;;;;28.10;17.55;;;20.70;69.00;;;;;;5115168;28;20019;-69
2022/09/05 07:15:57;;;;;;;29.52;15.57;;;20.80;69.00;;;;;;5115086;28;20032;-69
2022/09/05 07:18:42;;;;;;;24.10;13.50;;;20.90;68.60;;;;;;5115389;28;20483;-69
2022/09/05 07:21:18;;;;;;;22.42;12.57;;;21.00;68.40;;;;;;5096551;28;20497;-69
2022/09/05 07:23:46;;;;;;;13.10;9.00;;;21.00;67.90;;;;;;5096769;28;20028;-69
2022/09/05 07:26:15;;;;;;;14.57;9.27;;;21.10;68.00;;;;;;5115080;28;20411;-69
2022/09/05 07:28:44;;;;;;;11.20;7.85;;;21.10;67.70;;;;;;5115072;28;20062;-69
2022/09/05 07:31:16;;;;;;;14.32;8.13;;;21.20;67.60;;;;;;5096339;28;20030;-69
2022/09/05 07:33:45;;;;;;;14.98;8.07;;;21.30;67.60;;;;;;5114841;28;20023;-69
2022/09/05 07:36:16;;;;;;;14.40;8.77;;;21.30;67.20;;;;;;5114835;28;20016;-69
2022/09/05 07:38:49;;;;;;;17.70;10.32;;;21.40;67.20;;;;;;5114883;28;20031;-69
2022/09/05 07:41:18;;;;;;;14.75;10.52;;;21.50;67.00;;;;;;5114654;28;20474;-69
2022/09/05 07:43:47;;;;;;;21.63;10.77;;;21.50;66.60;;;;;;5114653;28;20019;-69
2022/09/05 07:46:25;;;;;;;18.88;11.35;;;21.60;66.40;;;;;;5114712;28;20459;-70
2022/09/05 07:49:01;;;;;;;18.60;11.65;;;21.60;66.30;;;;;;5114198;28;20016;-69
2022/09/05 07:51:32;;;;;;;17.70;10.80;;;21.70;66.00;;;;;;5114556;28;20073;-69
2022/09/05 07:54:17;;;;;;;20.13;11.60;;;21.70;65.50;;;;;;5113195;28;20432;-69
2022/09/05 07:56:58;;;;;;;18.45;11.50;;;21.70;65.10;;;;;;5114481;28;20068;-69
2022/09/05 07:59:27;;;;;;;21.20;13.30;;;21.80;65.50;;;;;;5114000;28;20047;-67
2022/09/05 08:01:55;;;;;;;21.23;12.32;;;21.80;65.50;;;;;;5114048;28;20046;-68
2022/09/05 08:04:32;;;;;;;19.08;12.13;;;21.80;65.40;;;;;;5114171;27;20084;-67
2022/09/05 08:07:03;;;;;;;21.27;12.32;;;21.80;65.20;;;;;;5095059;28;20015;-68
2022/09/05 08:09:40;;;;;;;30.25;12.93;;;21.90;65.10;;;;;;5114228;28;20011;-68
2022/09/05 08:12:23;;;;;;;18.55;13.18;;;21.90;65.10;;;;;;5114116;28;20016;-68
2022/09/05 08:15:25;;;;;;;18.90;13.27;;;21.90;65.00;;;;;;5114089;28;20019;-68
2022/09/05 08:17:51;;;;;;;23.27;14.40;;;22.00;65.20;;;;;;5072734;28;20032;-68
2022/09/05 08:20:48;;;;;;;19.85;12.32;;;22.00;65.00;;;;;;5113950;28;20046;-69
2022/09/05 08:23:28;;;;;;;17.52;10.82;;;22.10;64.90;;;;;;5113846;28;20145;-67
2022/09/05 08:26:34;;;;;;;19.85;10.60;;;22.20;65.00;;;;;;5113844;28;20023;-68
2022/09/05 08:29:34;;;;;;;17.95;10.45;;;22.30;65.10;;;;;;5113009;28;20032;-67
2022/09/05 08:32:17;;;;;;;14.65;9.15;;;22.30;64.60;;;;;;5113299;28;20122;-68
2022/09/05 08:34:50;;;;;;;18.48;10.23;;;22.40;64.40;;;;;;5113805;28;20381;-68
2022/09/05 08:37:21;;;;;;;17.70;10.13;;;22.50;63.80;;;;;;5113762;28;20027;-69
2022/09/05 08:40:01;;;;;;;16.95;10.52;;;22.60;63.50;;;;;;5095347;28;20024;-68
2022/09/05 08:42:52;;;;;;;20.77;9.65;;;22.50;63.20;;;;;;5095176;28;20047;-68
2022/09/05 08:45:28;;;;;;;14.20;9.38;;;22.60;63.60;;;;;;5113559;28;20019;-69
2022/09/05 08:48:09;;;;;;;14.43;10.43;;;22.60;63.20;;;;;;5113572;28;20012;-68
2022/09/05 08:50:54;;;;;;;16.10;9.90;;;22.70;62.70;;;;;;5113440;28;20020;-69
2022/09/05 08:53:40;;;;;;;14.93;9.02;;;22.70;63.00;;;;;;5113410;28;20382;-68
2022/09/05 08:56:49;;;;;;;15.23;9.13;;;22.80;63.20;;;;;;5113362;28;20023;-68
2022/09/05 08:59:32;;;;;;;11.18;8.00;;;22.80;63.30;;;;;;5100885;28;20036;-69
2022/09/05 09:02:32;;;;;;;16.23;10.57;;;22.90;62.40;;;;;;5113071;28;20034;-69
2022/09/05 09:05:27;;;;;;;14.65;8.60;;;22.90;62.30;;;;;;5113198;28;20451;-69
2022/09/05 09:08:19;;;;;;;15.63;7.93;;;23.00;62.10;;;;;;5081637;28;20059;-69
2022/09/05 09:11:05;;;;;;;14.13;8.20;;;23.10;62.50;;;;;;5113145;28;20027;-69
2022/09/05 09:13:55;;;;;;;15.05;8.80;;;23.20;61.80;;;;;;5113209;28;20150;-68
2022/09/05 09:16:37;;;;;;;16.80;9.20;;;23.20;61.50;;;;;;5113040;28;20015;-68
2022/09/05 09:19:19;;;;;;;10.85;7.15;;;23.30;61.00;;;;;;5113101;28;20019;-68
2022/09/05 09:22:14;;;;;;;12.43;7.30;;;23.40;61.30;;;;;;5112982;28;20383;-69
2022/09/05 09:24:46;;;;;;;11.35;7.45;;;23.50;61.30;;;;;;5113051;28;20073;-68
2022/09/05 09:27:47;;;;;;;13.80;8.48;;;23.60;61.40;;;;;;5113015;28;20080;-68
2022/09/05 09:30:14;;;;;;;19.17;9.73;;;23.70;60.90;;;;;;5040007;28;20029;-68
2022/09/05 09:32:47;;;;;;;15.75;8.57;;;23.80;59.90;;;;;;5112614;28;20047;-68
2022/09/05 09:35:25;;;;;;;12.80;9.23;;;23.80;60.00;;;;;;5112903;28;20076;-68
2022/09/05 09:38:20;;;;;;;22.17;9.23;;;23.90;59.50;;;;;;5112814;28;20027;-68
2022/09/05 09:41:10;;;;;;;14.57;9.10;;;24.00;59.40;;;;;;5090601;28;20394;-68
2022/09/05 09:44:00;;;;;;;17.67;9.77;;;24.10;59.40;;;;;;5112911;28;20019;-68
2022/09/05 09:46:40;;;;;;;32.72;9.95;;;24.10;58.80;;;;;;5112837;28;20022;-68
2022/09/05 09:49:33;;;;;;;20.05;9.85;;;24.20;58.50;;;;;;5112299;28;20077;-68
2022/09/05 09:52:02;;;;;;;16.58;9.57;;;24.20;58.50;;;;;;5112887;28;20479;-68
2022/09/05 09:55:06;;;;;;;14.73;8.45;;;24.30;58.10;;;;;;5094625;28;20023;-68
2022/09/05 09:57:59;;;;;;;12.38;7.45;;;24.30;58.30;;;;;;5112954;28;20023;-68
2022/09/05 10:00:31;;;;;;;12.70;7.25;;;24.40;58.30;;;;;;5112849;28;20024;-68
2022/09/05 10:03:15;;;;;;;16.77;7.65;;;24.50;58.50;;;;;;5132447;28;20030;-68
2022/09/05 10:06:35;;;;;;;18.65;8.18;;;24.50;58.20;;;;;;5112750;28;20506;-68
2022/09/05 10:09:14;;;;;;;14.02;8.18;;;24.60;58.30;;;;;;5112582;28;20095;-69
2022/09/05 10:12:28;;;;;;;11.25;7.53;;;24.80;58.00;;;;;;5112614;28;20020;-69
2022/09/05 10:15:21;;;;;;;11.82;6.00;;;24.80;57.70;;;;;;5090479;28;20121;-68
2022/09/05 10:17:53;;;;;;;9.20;6.15;;;24.90;57.30;;;;;;5100180;28;20111;-68
2022/09/05 10:20:50;;;;;;;10.40;6.20;;;25.00;57.40;;;;;;5114701;28;20114;-68
2022/09/05 10:23:28;;;;;;;11.48;6.78;;;25.10;57.40;;;;;;5133015;28;20050;-68
2022/09/05 10:26:31;;;;;;;11.75;7.65;;;25.10;56.70;;;;;;5133142;28;20016;-68
2022/09/05 10:29:29;;;;;;;7.05;5.43;;;25.20;56.50;;;;;;5115274;27;20019;-68
2022/09/05 10:32:04;;;;;;;12.63;6.90;;;25.20;56.90;;;;;;5124318;27;20043;-68
2022/09/05 10:34:53;;;;;;;14.23;8.13;;;25.30;56.30;;;;;;5097714;28;20100;-68
2022/09/05 10:37:19;;;;;;;16.38;7.95;;;25.30;56.10;;;;;;5086931;28;20077;-68
2022/09/05 10:39:50;;;;;;;16.77;8.45;;;25.40;56.40;;;;;;5115997;28;20092;-68
2022/09/05 10:42:36;;;;;;;11.40;7.43;;;25.50;56.30;;;;;;5115817;28;20032;-68
2022/09/05 10:45:10;;;;;;;17.50;8.80;;;25.50;56.70;;;;;;5116006;28;20020;-68
2022/09/05 10:48:04;;;;;;;11.60;7.22;;;25.60;56.00;;;;;;5115870;28;20019;-68
2022/09/05 10:50:44;;;;;;;12.93;8.13;;;25.60;56.30;;;;;;5084031;28;20031;-69
2022/09/05 10:53:25;;;;;;;12.52;7.75;;;25.70;56.10;;;;;;5115722;28;20474;-68
2022/09/05 10:56:05;;;;;;;17.80;8.88;;;25.80;55.80;;;;;;5115640;28;20471;-68
2022/09/05 10:58:45;;;;;;;11.57;6.80;;;25.80;55.30;;;;;;5115684;28;20066;-68
2022/09/05 11:01:32;;;;;;;10.52;7.38;;;25.80;55.80;;;;;;5097081;28;20023;-68
2022/09/05 11:04:32;;;;;;;12.52;9.05;;;26.00;56.20;;;;;;5115440;28;20375;-68
2022/09/05 11:07:37;;;;;;;12.38;8.13;;;26.00;55.50;;;;;;5115469;28;20531;-68
2022/09/05 11:10:13;;;;;;;9.13;7.55;;;26.10;55.80;;;;;;5115447;28;20043;-68
2022/09/05 11:12:39;;;;;;;10.40;7.53;;;26.10;55.40;;;;;;5096834;28;20478;-68
2022/09/05 11:15:22;;;;;;;13.27;8.20;;;26.20;55.30;;;;;;5115118;28;20027;-68
2022/09/05 11:18:02;;;;;;;8.68;6.38;;;26.20;54.70;;;;;;5115031;28;20023;-68
2022/09/05 11:20:47;;;;;;;7.72;6.10;;;26.30;54.70;;;;;;5115171;28;20089;-68
2022/09/05 11:23:19;;;;;;;12.40;6.65;;;26.40;55.30;;;;;;5115100;28;20020;-68
2022/09/05 11:25:59;;;;;;;10.18;6.45;;;26.50;54.80;;;;;;5115131;28;20501;-68
2022/09/05 11:29:06;;;;;;;7.45;6.10;;;26.60;54.30;;;;;;5115140;28;20020;-68
2022/09/05 11:31:45;;;;;;;10.63;7.55;;;26.60;54.50;;;;;;5112325;27;20036;-68
2022/09/05 11:34:34;;;;;;;9.60;7.05;;;26.70;53.40;;;;;;5114921;28;20125;-68
2022/09/05 11:37:02;;;;;;;9.52;7.07;;;26.70;53.50;;;;;;5114917;28;20088;-68
2022/09/05 11:39:49;;;;;;;7.65;5.47;;;26.80;53.40;;;;;;5114696;28;20027;-69
2022/09/05 11:42:30;;;;;;;12.40;6.60;;;26.90;53.80;;;;;;5096696;28;20360;-68
2022/09/05 11:45:14;;;;;;;9.15;6.75;;;27.00;53.40;;;;;;5114702;28;20020;-68
2022/09/05 11:47:50;;;;;;;9.90;7.10;;;27.00;53.20;;;;;;5114698;28;20024;-68
2022/09/05 11:50:34;;;;;;;7.35;6.07;;;27.10;53.10;;;;;;5114653;28;20098;-68
2022/09/05 11:53:22;;;;;;;12.35;7.45;;;27.20;53.40;;;;;;5114590;28;20058;-69
2022/09/05 11:55:51;;;;;;;9.27;7.20;;;27.30;53.00;;;;;;5114398;28;20027;-68
2022/09/05 11:58:20;;;;;;;8.50;5.75;;;27.30;53.00;;;;;;5114489;28;20039;-68
2022/09/05 12:01:11;;;;;;;8.95;6.80;;;27.40;52.80;;;;;;5095860;27;20390;-68
2022/09/05 12:04:18;;;;;;;8.35;7.25;;;27.40;52.60;;;;;;5114337;28;20051;-68
2022/09/05 12:07:03;;;;;;;7.53;6.38;;;27.50;52.80;;;;;;5114405;28;20058;-68
2022/09/05 12:09:47;;;;;;;8.48;6.93;;;27.50;52.60;;;;;;5114304;28;20028;-69
2022/09/05 12:12:22;;;;;;;11.15;6.95;;;27.50;51.50;;;;;;5114190;28;20027;-69
2022/09/05 12:15:10;;;;;;;11.68;6.95;;;27.50;51.50;;;;;;5114108;28;20097;-68
2022/09/05 12:17:51;;;;;;;10.02;7.38;;;27.60;52.50;;;;;;5114011;28;20046;-68
2022/09/05 12:20:26;;;;;;;9.98;6.45;;;27.60;51.60;;;;;;5114165;28;20431;-68
2022/09/05 12:23:01;;;;;;;7.75;6.53;;;27.60;51.70;;;;;;5113970;28;20630;-68
2022/09/05 12:25:39;;;;;;;7.57;6.03;;;27.60;51.80;;;;;;5113912;28;20572;-68
2022/09/05 12:28:10;;;;;;;12.00;7.28;;;27.70;51.90;;;;;;5113896;28;20015;-68
2022/09/05 12:30:39;;;;;;;10.05;7.47;;;27.80;51.30;;;;;;5114137;28;20566;-68
2022/09/05 12:33:30;;;;;;;8.25;6.03;;;27.80;51.30;;;;;;5091882;28;20072;-69
2022/09/05 12:36:16;;;;;;;8.85;6.18;;;27.80;51.60;;;;;;5088316;28;20051;-69
2022/09/05 12:38:52;;;;;;;7.18;5.70;;;27.90;51.20;;;;;;5093015;28;20060;-69
2022/09/05 12:41:24;;;;;;;9.65;5.80;;;27.90;51.20;;;;;;5093229;28;20360;-69
2022/09/05 12:44:00;;;;;;;9.65;6.53;;;27.90;51.10;;;;;;5093276;28;20516;-68
2022/09/05 12:46:44;;;;;;;9.20;6.13;;;28.00;51.00;;;;;;5091930;28;20114;-68
2022/09/05 12:49:24;;;;;;;7.13;5.65;;;28.00;50.90;;;;;;5093111;28;20483;-69
2022/09/05 12:52:03;;;;;;;8.85;5.80;;;28.10;51.00;;;;;;5092764;28;20035;-69
2022/09/05 12:54:53;;;;;;;9.77;6.78;;;28.10;50.80;;;;;;5093031;28;20031;-68
2022/09/05 12:57:27;;;;;;;11.05;6.00;;;28.20;50.60;;;;;;5093073;28;20061;-68
2022/09/05 12:59:58;;;;;;;11.98;6.60;;;28.20;50.40;;;;;;5092897;28;20024;-69
2022/09/05 13:02:32;;;;;;;8.77;6.57;;;28.30;50.40;;;;;;5092766;28;20024;-69
2022/09/05 13:05:02;;;;;;;;;;;28.30;50.10;;;;;;5093352;28;20020;-68
2022/09/05 13:07:41;;;;;;;6.10;5.47;;;28.30;51.20;;;;;;5092944;28;19938;-69
2022/09/05 13:10:14;;;;;;;10.85;5.85;;;28.40;50.10;;;;;;5092943;28;20438;-69
2022/09/05 13:12:48;;;;;;;7.85;5.88;;;28.40;50.00;;;;;;5092925;28;20028;-68
2022/09/05 13:15:37;;;;;;;11.52;6.07;;;28.40;50.20;;;;;;5092792;28;20031;-69
2022/09/05 13:18:17;;;;;;;13.57;5.90;;;28.40;49.70;;;;;;5092746;28;20031;-68
2022/09/05 13:20:58;;;;;;;16.27;5.68;;;28.50;49.30;;;;;;5091461;28;20028;-69
2022/09/05 13:23:45;;;;;;;11.88;6.20;;;28.50;49.50;;;;;;5093186;28;20016;-69
2022/09/05 13:26:32;;;;;;;8.23;5.88;;;28.50;49.50;;;;;;5092578;28;20020;-69
2022/09/05 13:29:11;;;;;;;9.93;6.53;;;28.60;49.50;;;;;;5092591;28;20024;-69
2022/09/05 13:31:40;;;;;;;9.93;7.60;;;28.60;49.10;;;;;;5098305;28;20083;-68
2022/09/05 13:34:28;;;;;;;7.68;6.28;;;28.60;49.00;;;;;;5112879;28;20031;-68
2022/09/05 13:37:09;;;;;;;8.52;5.78;;;28.60;49.60;;;;;;5112737;28;20058;-69
2022/09/05 13:39:47;;;;;;;8.55;5.72;;;28.70;49.20;;;;;;5112844;28;20092;-66
2022/09/05 13:42:17;;;;;;;7.47;5.80;;;28.70;48.70;;;;;;5112975;28;20111;-67
2022/09/05 13:44:45;;;;;;;11.40;6.38;;;28.60;48.90;;;;;;5112837;28;20382;-67
2022/09/05 13:47:17;;;;;;;8.88;5.95;;;28.70;48.80;;;;;;5094442;28;20043;-67
2022/09/05 13:49:54;;;;;;;11.95;6.05;;;28.70;49.00;;;;;;5112728;28;20020;-67
2022/09/05 13:52:24;;;;;;;10.52;6.43;;;28.70;48.90;;;;;;5112748;28;20100;-67
2022/09/05 13:55:18;;;;;;;7.15;4.90;;;28.80;48.70;;;;;;5112783;28;20490;-67
2022/09/05 13:57:48;;;;;;;9.80;6.40;;;28.80;49.20;;;;;;5112546;28;20107;-67
2022/09/05 14:00:22;;;;;;;7.05;5.40;;;28.80;48.50;;;;;;5112544;28;20076;-68